Time,TemperatureF,DewpointF,PressureIn,WindDirection,WindDirectionDegrees,WindSpeedMPH,WindSpeedGustMPH,Humidity,HourlyPrecipIn,Conditions,Clouds,dailyrainin,SoftwareType,DateUTC
2013-03-20 00:14:00,41.7,22.5,29.98,NE,45,2.2,-999.0,46,-99.99,,,0.00,Acu-Link.com,2013-03-20 04:14:00,
2013-03-20 00:29:00,44.2,18.3,29.98,NNW,337,3.7,-999.0,35,-99.99,,,0.00,Acu-Link.com,2013-03-20 04:29:00,
2013-03-20 00:44:00,44.4,17.1,29.98,NE,45,2.7,-999.0,33,-99.99,,,0.00,Acu-Link.com,2013-03-20 04:44:00,
2013-03-20 01:00:00,44.6,17.3,29.97,NW,315,1.7,-999.0,33,-99.99,,,0.00,Acu-Link.com,2013-03-20 05:00:00,
2013-03-20 01:15:00,44.4,17.1,29.97,North,0,1.7,-999.0,33,-99.99,,,0.00,Acu-Link.com,2013-03-20 05:15:00,
2013-03-20 01:30:00,43.9,16.0,29.96,North,0,0.0,-999.0,32,-99.99,,,0.00,Acu-Link.com,2013-03-20 05:30:00,
2013-03-20 01:45:00,42.8,17.1,29.96,NE,45,0.0,-999.0,35,-99.99,,,0.00,Acu-Link.com,2013-03-20 05:45:00,
2013-03-20 02:00:00,41.7,19.8,29.97,NNW,337,0.0,-999.0,41,-99.99,,,0.00,Acu-Link.com,2013-03-20 06:00:00,
2013-03-20 02:15:00,41.2,19.9,29.97,NW,315,0.0,-999.0,42,-99.99,,,0.00,Acu-Link.com,2013-03-20 06:15:00,
2013-03-20 02:30:00,40.8,19.5,29.97,NW,315,0.0,-999.0,42,-99.99,,,0.00,Acu-Link.com,2013-03-20 06:30:00,
2013-03-20 02:45:00,40.8,17.2,29.98,NW,315,0.0,-999.0,38,-99.99,,,0.00,Acu-Link.com,2013-03-20 06:45:00,
2013-03-20 03:01:00,40.3,19.1,29.97,NW,315,0.0,-999.0,42,-99.99,,,0.00,Acu-Link.com,2013-03-20 07:01:00,
2013-03-20 03:16:00,39.6,22.0,29.97,NW,315,0.0,-999.0,49,-99.99,,,0.00,Acu-Link.com,2013-03-20 07:16:00,
2013-03-20 03:31:00,39.0,24.7,29.97,NW,315,0.0,-999.0,56,-99.99,,,0.00,Acu-Link.com,2013-03-20 07:31:00,
2013-03-20 03:46:00,37.8,26.4,29.96,NW,315,2.2,-999.0,63,-99.99,,,0.00,Acu-Link.com,2013-03-20 07:46:00,
2013-03-20 04:01:00,37.2,23.8,29.96,NW,315,0.0,-999.0,58,-99.99,,,0.00,Acu-Link.com,2013-03-20 08:01:00,
2013-03-20 04:20:00,37.2,26.2,29.96,NW,315,0.0,-999.0,64,-99.99,,,0.00,Acu-Link.com,2013-03-20 08:20:00,
2013-03-20 04:36:00,37.0,26.7,29.96,NW,315,2.7,-999.0,66,-99.99,,,0.00,Acu-Link.com,2013-03-20 08:36:00,
2013-03-20 05:07:00,38.7,16.5,29.96,North,0,2.7,-999.0,40,-99.99,,,0.00,Acu-Link.com,2013-03-20 09:07:00,
2013-03-20 05:37:00,39.4,17.7,29.95,NNE,22,1.1,-999.0,41,-99.99,,,0.00,Acu-Link.com,2013-03-20 09:37:00,
2013-03-20 05:52:00,38.8,17.1,29.95,NW,315,1.7,-999.0,41,-99.99,,,0.00,Acu-Link.com,2013-03-20 09:52:00,
2013-03-20 06:07:00,37.6,18.7,29.96,NW,315,0.0,-999.0,46,-99.99,,,0.00,Acu-Link.com,2013-03-20 10:07:00,
2013-03-20 06:22:00,36.0,20.5,29.96,NW,315,2.2,-999.0,53,-99.99,,,0.00,Acu-Link.com,2013-03-20 10:22:00,
2013-03-20 06:37:00,34.3,21.5,29.96,NW,315,1.7,-999.0,59,-99.99,,,0.00,Acu-Link.com,2013-03-20 10:37:00,
2013-03-20 06:52:00,32.7,23.3,29.98,NW,315,0.0,-999.0,68,-99.99,,,0.00,Acu-Link.com,2013-03-20 10:52:00,
2013-03-20 07:08:00,31.8,23.8,29.98,NW,315,0.0,-999.0,72,-99.99,,,0.00,Acu-Link.com,2013-03-20 11:08:00,
2013-03-20 07:23:00,30.6,23.6,29.99,NW,315,2.2,-999.0,75,-99.99,,,0.00,Acu-Link.com,2013-03-20 11:23:00,
2013-03-20 07:38:00,30.0,23.4,29.99,NW,315,1.1,-999.0,76,-99.99,,,0.00,Acu-Link.com,2013-03-20 11:38:00,
2013-03-20 07:53:00,29.3,23.3,29.99,NW,315,0.0,-999.0,78,-99.99,,,0.00,Acu-Link.com,2013-03-20 11:53:00,
2013-03-20 08:08:00,28.9,22.9,29.98,NW,315,1.7,-999.0,78,-99.99,,,0.00,Acu-Link.com,2013-03-20 12:08:00,
2013-03-20 08:23:00,29.7,24.6,29.98,NW,315,1.7,-999.0,81,-99.99,,,0.00,Acu-Link.com,2013-03-20 12:23:00,
2013-03-20 08:38:00,34.5,26.8,29.99,NW,315,0.0,-999.0,73,-99.99,,,0.00,Acu-Link.com,2013-03-20 12:38:00,
2013-03-20 08:53:00,39.0,28.6,29.99,NW,315,0.0,-999.0,66,-99.99,,,0.00,Acu-Link.com,2013-03-20 12:53:00,
2013-03-20 09:08:00,43.3,29.5,29.98,NW,315,0.0,-999.0,58,-99.99,,,0.00,Acu-Link.com,2013-03-20 13:08:00,
2013-03-20 09:24:00,45.1,29.5,29.98,SW,225,2.2,-999.0,54,-99.99,,,0.00,Acu-Link.com,2013-03-20 13:24:00,
2013-03-20 09:39:00,49.1,26.4,29.97,East,90,2.7,-999.0,41,-99.99,,,0.00,Acu-Link.com,2013-03-20 13:39:00,
2013-03-20 09:54:00,51.1,22.3,29.96,ESE,112,2.2,-999.0,32,-99.99,,,0.00,Acu-Link.com,2013-03-20 13:54:00,
2013-03-20 10:09:00,51.6,19.6,29.96,East,90,4.2,-999.0,28,-99.99,,,0.00,Acu-Link.com,2013-03-20 14:09:00,
2013-03-20 10:24:00,51.3,20.9,29.95,ESE,112,3.2,-999.0,30,-99.99,,,0.00,Acu-Link.com,2013-03-20 14:24:00,
2013-03-20 10:39:00,52.2,20.9,29.94,ESE,112,4.7,-999.0,29,-99.99,,,0.00,Acu-Link.com,2013-03-20 14:39:00,
2013-03-20 10:54:00,54.7,23.9,29.93,SE,135,1.1,-999.0,30,-99.99,,,0.00,Acu-Link.com,2013-03-20 14:54:00,
2013-03-20 11:09:00,56.8,15.0,29.92,East,90,3.2,-999.0,19,-99.99,,,0.00,Acu-Link.com,2013-03-20 15:09:00,
2013-03-20 11:24:00,59.2,19.3,29.92,SSW,202,2.7,-999.0,21,-99.99,,,0.00,Acu-Link.com,2013-03-20 15:24:00,
2013-03-20 11:40:00,56.8,17.3,29.91,SE,135,4.2,-999.0,21,-99.99,,,0.00,Acu-Link.com,2013-03-20 15:40:00,
2013-03-20 11:55:00,57.9,18.2,29.89,WSW,247,5.3,-999.0,21,-99.99,,,0.00,Acu-Link.com,2013-03-20 15:55:00,
2013-03-20 12:10:00,58.6,19.9,29.89,South,180,6.8,-999.0,22,-99.99,,,0.00,Acu-Link.com,2013-03-20 16:10:00,
2013-03-20 12:25:00,59.0,22.3,29.88,SSE,157,3.7,-999.0,24,-99.99,,,0.00,Acu-Link.com,2013-03-20 16:25:00,
2013-03-20 12:40:00,58.8,21.1,29.88,WSW,247,3.2,-999.0,23,-99.99,,,0.00,Acu-Link.com,2013-03-20 16:40:00,
2013-03-20 12:56:00,60.4,15.4,29.87,South,180,4.2,-999.0,17,-99.99,,,0.00,Acu-Link.com,2013-03-20 16:56:00,
2013-03-20 13:41:00,61.5,22.3,29.83,West,270,2.7,-999.0,22,-99.99,,,0.00,Acu-Link.com,2013-03-20 17:41:00,
2013-03-20 13:56:00,62.8,25.5,29.81,SSE,157,8.9,-999.0,24,-99.99,,,0.00,Acu-Link.com,2013-03-20 17:56:00,
2013-03-20 14:11:00,62.8,21.1,29.81,South,180,1.7,-999.0,20,-99.99,,,0.00,Acu-Link.com,2013-03-20 18:11:00,
2013-03-20 15:12:00,63.5,26.1,29.78,West,270,5.3,-999.0,24,-99.99,,,0.00,Acu-Link.com,2013-03-20 19:12:00,
2013-03-20 15:27:00,62.8,26.5,29.78,West,270,4.2,-999.0,25,-99.99,,,0.00,Acu-Link.com,2013-03-20 19:27:00,
2013-03-20 15:42:00,59.5,21.7,29.77,SW,225,5.3,-999.0,23,-99.99,,,0.00,Acu-Link.com,2013-03-20 19:42:00,
2013-03-20 15:57:00,60.6,25.5,29.76,West,270,6.8,-999.0,26,-99.99,,,0.00,Acu-Link.com,2013-03-20 19:57:00,
2013-03-20 16:12:00,60.8,21.7,29.75,West,270,4.2,-999.0,22,-99.99,,,0.00,Acu-Link.com,2013-03-20 20:12:00,
2013-03-20 16:28:00,59.5,21.7,29.73,NNW,337,2.7,-999.0,23,-99.99,,,0.00,Acu-Link.com,2013-03-20 20:28:00,
2013-03-20 16:43:00,55.0,20.8,29.74,WNW,292,5.8,-999.0,26,-99.99,,,0.00,Acu-Link.com,2013-03-20 20:43:00,
2013-03-20 16:58:00,54.9,21.6,29.73,WSW,247,3.2,-999.0,27,-99.99,,,0.00,Acu-Link.com,2013-03-20 20:58:00,
2013-03-20 17:13:00,55.8,21.4,29.73,West,270,6.8,-999.0,26,-99.99,,,0.00,Acu-Link.com,2013-03-20 21:13:00,
2013-03-20 17:28:00,53.6,22.9,29.72,West,270,2.7,-999.0,30,-99.99,,,0.00,Acu-Link.com,2013-03-20 21:28:00,
2013-03-20 17:43:00,54.5,22.1,29.72,West,270,5.3,-999.0,28,-99.99,,,0.00,Acu-Link.com,2013-03-20 21:43:00,
2013-03-20 17:58:00,52.9,21.5,29.72,NNW,337,5.3,-999.0,29,-99.99,,,0.00,Acu-Link.com,2013-03-20 21:58:00,
2013-03-20 18:13:00,54.1,24.1,29.71,West,270,7.8,-999.0,31,-99.99,,,0.00,Acu-Link.com,2013-03-20 22:13:00,
2013-03-20 18:29:00,51.8,25.0,29.73,West,270,5.3,-999.0,35,-99.99,,,0.00,Acu-Link.com,2013-03-20 22:29:00,
2013-03-20 18:44:00,51.6,23.5,29.73,WNW,292,1.7,-999.0,33,-99.99,,,0.00,Acu-Link.com,2013-03-20 22:44:00,
2013-03-20 18:59:00,50.4,25.8,29.74,SW,225,5.8,-999.0,38,-99.99,,,0.00,Acu-Link.com,2013-03-20 22:59:00,
2013-03-20 19:14:00,48.2,27.3,29.75,WNW,292,3.7,-999.0,44,-99.99,,,0.00,Acu-Link.com,2013-03-20 23:14:00,
2013-03-20 19:29:00,48.0,28.2,29.77,NW,315,4.2,-999.0,46,-99.99,,,0.00,Acu-Link.com,2013-03-20 23:29:00,
2013-03-20 19:44:00,45.3,33.5,29.79,NNW,337,5.3,-999.0,63,-99.99,,,0.00,Acu-Link.com,2013-03-20 23:44:00,
2013-03-20 19:59:00,42.8,34.1,29.81,NNE,22,7.8,-999.0,71,-99.99,,,0.00,Acu-Link.com,2013-03-20 23:59:00,
2013-03-20 20:14:00,41.9,33.2,29.81,WNW,292,2.7,-999.0,71,-99.99,,,0.00,Acu-Link.com,2013-03-21 00:14:00,
2013-03-20 20:29:00,41.2,32.5,29.83,NW,315,5.3,-999.0,71,-99.99,,,0.00,Acu-Link.com,2013-03-21 00:29:00,
2013-03-20 20:44:00,39.2,32.9,29.82,NNE,22,2.7,-999.0,78,-99.99,,,0.00,Acu-Link.com,2013-03-21 00:44:00,
2013-03-20 21:00:00,37.9,32.3,29.83,ESE,112,1.7,-999.0,80,-99.99,,,0.00,Acu-Link.com,2013-03-21 01:00:00,
2013-03-20 21:15:00,37.2,31.6,29.83,WNW,292,3.7,-999.0,80,-99.99,,,0.00,Acu-Link.com,2013-03-21 01:15:00,
2013-03-20 21:30:00,36.9,31.3,29.83,WNW,292,3.2,-999.0,80,-99.99,,,0.00,Acu-Link.com,2013-03-21 01:30:00,
2013-03-20 21:45:00,36.5,30.9,29.84,WNW,292,1.7,-999.0,80,-99.99,,,0.00,Acu-Link.com,2013-03-21 01:45:00,
2013-03-20 22:00:00,36.0,30.1,29.83,WNW,292,1.7,-999.0,79,-99.99,,,0.00,Acu-Link.com,2013-03-21 02:00:00,
2013-03-20 22:15:00,35.8,29.3,29.84,NW,315,3.2,-999.0,77,-99.99,,,0.00,Acu-Link.com,2013-03-21 02:15:00,
2013-03-20 22:31:00,35.8,29.3,29.84,WNW,292,2.7,-999.0,77,-99.99,,,0.00,Acu-Link.com,2013-03-21 02:31:00,
2013-03-20 22:46:00,35.6,29.1,29.84,WNW,292,1.1,-999.0,77,-99.99,,,0.00,Acu-Link.com,2013-03-21 02:46:00,
2013-03-20 23:16:00,35.4,28.0,29.85,NE,45,2.7,-999.0,74,-99.99,,,0.00,Acu-Link.com,2013-03-21 03:16:00,
2013-03-20 23:31:00,34.9,26.1,29.85,WNW,292,5.3,-999.0,70,-99.99,,,0.00,Acu-Link.com,2013-03-21 03:31:00,